Landisville, Pennsylvania
Current Conditions -  °F | °C
As of 11:53 AM on Saturday 25 Oct 2014 (Local Time) from KLNS Reporting Station
Clear Clear  
Wind Chill: 63°   Ceiling: Unl
Heat Index: 63°   Visibility: 10mi
Dew Point: 42°   Wind: 13mph
Humidity: 46%   Direction: 290°WNW
Pressure: 29.87"   Gusts: NA
Location:  40.1°N, 76.41°W
Report Text: KLNS 251553Z 29011KT 10SM CLR 17/06 A2987 RMK AO2 SLP114 T01720056
Loading
Personal Weather Stations






























Interactive Weather Map
Tropical Storm Tracking
New forecast layout! Learn more

10-Day Weather Forecast

Advertisements
Track Severe Weather on mobile